createdAt,value
2019-05-26T00:00:36.953Z,10.48
2019-05-26T00:05:41.582Z,10.55
2019-05-26T00:10:46.124Z,10.50
2019-05-26T00:15:50.789Z,11.08
2019-05-26T00:20:55.470Z,10.98
2019-05-26T00:26:00.148Z,11.70
2019-05-26T00:31:04.853Z,10.90
2019-05-26T00:36:09.421Z,11.33
2019-05-26T00:41:14.166Z,11.00
2019-05-26T00:46:18.792Z,10.40
2019-05-26T00:51:23.329Z,10.08
2019-05-26T00:56:28.012Z,10.50
2019-05-26T01:01:32.637Z,10.70
2019-05-26T01:06:37.257Z,10.32
2019-05-26T01:11:41.739Z,10.70
2019-05-26T01:16:46.351Z,10.75
2019-05-26T01:21:50.971Z,10.65
2019-05-26T01:26:55.525Z,10.53
2019-05-26T01:32:00.160Z,10.75
2019-05-26T01:37:05.969Z,10.90
2019-05-26T01:42:10.588Z,10.53
2019-05-26T01:47:15.216Z,9.95
2019-05-26T01:52:19.771Z,10.80
2019-05-26T01:57:24.429Z,10.35
2019-05-26T02:02:28.919Z,10.48
2019-05-26T02:07:33.467Z,12.90
2019-05-26T02:12:38.163Z,11.88
2019-05-26T02:17:42.865Z,12.43
2019-05-26T02:22:47.622Z,13.95
2019-05-26T02:27:53.229Z,12.75
2019-05-26T02:32:57.794Z,13.18
2019-05-26T02:38:02.448Z,13.43
2019-05-26T02:43:07.190Z,12.98
2019-05-26T02:48:12.800Z,13.32
2019-05-26T02:53:17.366Z,12.68
2019-05-26T02:58:21.937Z,12.45
2019-05-26T03:03:26.562Z,12.00
2019-05-26T03:08:33.083Z,13.38
2019-05-26T03:13:39.890Z,13.13
2019-05-26T03:18:46.413Z,13.30
2019-05-26T03:23:53.681Z,13.80
2019-05-26T03:28:58.252Z,13.35
2019-05-26T03:34:02.799Z,13.80
2019-05-26T03:39:07.903Z,13.88
2019-05-26T03:44:12.490Z,13.30
2019-05-26T03:49:17.065Z,11.90
2019-05-26T03:54:21.650Z,11.28
2019-05-26T03:59:26.195Z,10.60
2019-05-26T04:04:30.834Z,10.00
2019-05-26T04:09:35.298Z,8.88
2019-05-26T04:14:39.782Z,9.18
2019-05-26T04:19:45.470Z,8.75
2019-05-26T04:24:50.048Z,8.55
2019-05-26T04:29:54.755Z,9.08
2019-05-26T04:34:59.306Z,9.48
2019-05-26T04:40:24.847Z,8.93
2019-05-26T04:45:12.142Z,9.65
2019-05-26T04:50:16.755Z,10.50
2019-05-26T04:55:21.224Z,10.48
2019-05-26T05:00:25.905Z,10.18
2019-05-26T05:05:30.615Z,9.48
2019-05-26T05:10:42.281Z,9.13
2019-05-26T05:15:41.438Z,9.25
2019-05-26T05:20:47.305Z,9.40
2019-05-26T05:25:51.872Z,10.72
2019-05-26T05:30:56.427Z,10.70
2019-05-26T05:36:01.056Z,12.53
2019-05-26T05:41:05.635Z,12.13
2019-05-26T05:46:10.355Z,10.95
2019-05-26T05:51:14.967Z,10.40
2019-05-26T05:56:19.552Z,10.20
2019-05-26T06:01:24.102Z,10.40
2019-05-26T06:06:28.734Z,9.30
2019-05-26T06:11:33.365Z,11.08
2019-05-26T06:16:37.928Z,10.68
2019-05-26T06:21:42.584Z,9.05
2019-05-26T06:26:47.151Z,8.03
2019-05-26T06:31:51.942Z,8.93
2019-05-26T06:36:56.712Z,7.70
2019-05-26T06:42:01.534Z,7.95
2019-05-26T06:47:06.177Z,7.28
2019-05-26T06:52:10.740Z,7.92
2019-05-26T06:57:16.140Z,7.95
2019-05-26T07:02:20.843Z,7.67
2019-05-26T07:07:25.394Z,7.22
2019-05-26T07:12:30.046Z,7.75
2019-05-26T07:17:34.663Z,8.35
2019-05-26T07:22:39.210Z,8.40
2019-05-26T07:27:43.842Z,7.70
2019-05-26T07:32:48.424Z,7.42
2019-05-26T07:37:53.158Z,6.03
2019-05-26T07:42:57.891Z,7.42
2019-05-26T07:48:02.447Z,6.83
2019-05-26T07:53:06.993Z,7.58
2019-05-26T07:58:12.399Z,6.65
2019-05-26T08:03:17.093Z,6.45
2019-05-26T08:08:21.648Z,6.37
2019-05-26T08:13:26.153Z,6.95
2019-05-26T08:18:30.794Z,7.03
2019-05-26T08:23:35.477Z,6.05
2019-05-26T08:28:40.029Z,6.47
2019-05-26T08:33:44.551Z,6.75
2019-05-26T08:38:49.210Z,6.97
2019-05-26T08:43:53.895Z,7.40
2019-05-26T08:48:58.533Z,6.83
2019-05-26T08:54:03.159Z,7.20
2019-05-26T08:59:07.719Z,6.90
2019-05-26T09:04:12.437Z,6.33
2019-05-26T09:09:17.016Z,6.53
2019-05-26T09:14:21.544Z,6.55
2019-05-26T09:19:26.263Z,6.45
2019-05-26T09:24:30.708Z,6.42
2019-05-26T09:29:35.322Z,6.47
2019-05-26T09:34:39.870Z,4.87
2019-05-26T09:39:44.416Z,4.60
2019-05-26T09:44:48.901Z,4.50
2019-05-26T09:49:53.470Z,4.28
2019-05-26T09:54:58.099Z,4.00
2019-05-26T10:00:07.322Z,3.83
2019-05-26T10:05:13.877Z,4.58
2019-05-26T10:10:18.705Z,4.50
2019-05-26T10:15:23.379Z,3.95
2019-05-26T10:20:28.064Z,3.58
2019-05-26T10:25:32.769Z,3.60
2019-05-26T10:30:37.415Z,3.40
2019-05-26T10:35:42.489Z,3.42
2019-05-26T10:40:47.230Z,3.60
2019-05-26T10:45:52.622Z,3.90
2019-05-26T10:50:57.160Z,3.45
2019-05-26T10:56:02.587Z,3.87
2019-05-26T11:01:07.198Z,3.40
2019-05-26T11:06:11.908Z,3.77
2019-05-26T11:11:16.463Z,4.58
2019-05-26T11:16:21.079Z,3.83
2019-05-26T11:21:25.628Z,4.08
2019-05-26T11:26:30.168Z,4.08
2019-05-26T11:31:34.925Z,3.62
2019-05-26T11:36:39.350Z,4.37
2019-05-26T11:41:43.988Z,4.10
2019-05-26T11:46:48.541Z,4.30
2019-05-26T11:51:53.040Z,4.20
2019-05-26T11:56:57.587Z,3.92
2019-05-26T12:02:02.130Z,8.63
2019-05-26T12:07:06.749Z,5.15
2019-05-26T12:12:11.416Z,5.90
2019-05-26T12:17:16.089Z,7.50
2019-05-26T12:22:20.699Z,4.60
2019-05-26T12:27:25.251Z,4.60
2019-05-26T12:32:30.701Z,3.85
2019-05-26T12:37:35.366Z,4.35
2019-05-26T12:42:39.962Z,4.17
2019-05-26T12:47:44.468Z,5.00
2019-05-26T12:52:49.180Z,4.65
2019-05-26T12:57:53.813Z,4.90
2019-05-26T13:02:58.466Z,4.08
2019-05-26T13:08:03.004Z,3.98
2019-05-26T13:13:07.529Z,3.95
2019-05-26T13:18:12.169Z,4.87
2019-05-26T13:23:17.353Z,4.65
2019-05-26T13:28:21.866Z,4.08
2019-05-26T13:33:26.373Z,3.98
2019-05-26T13:38:30.837Z,3.67
2019-05-26T13:43:35.378Z,4.55
2019-05-26T13:48:39.919Z,3.55
2019-05-26T13:53:44.632Z,3.20
2019-05-26T13:58:49.170Z,3.70
2019-05-26T14:03:53.726Z,3.87
2019-05-26T14:09:01.546Z,3.67
2019-05-26T14:14:04.847Z,3.55
2019-05-26T14:19:09.461Z,3.83
2019-05-26T14:24:14.181Z,3.77
2019-05-26T14:29:18.909Z,3.60
2019-05-26T14:34:23.431Z,3.65
2019-05-26T14:39:27.998Z,4.03
2019-05-26T14:44:32.577Z,4.00
2019-05-26T14:49:37.109Z,4.50
2019-05-26T14:54:41.583Z,3.90
2019-05-26T14:59:46.134Z,3.37
2019-05-26T15:04:50.746Z,3.62
2019-05-26T15:09:55.300Z,4.67
2019-05-26T15:14:59.920Z,6.03
2019-05-26T15:20:05.497Z,4.53
2019-05-26T15:25:10.669Z,3.85
2019-05-26T15:30:15.779Z,4.35
2019-05-26T15:35:20.482Z,4.25
2019-05-26T15:40:25.109Z,3.75
2019-05-26T15:45:29.716Z,3.85
2019-05-26T15:50:34.539Z,3.42
2019-05-26T15:55:40.281Z,3.60
2019-05-26T16:00:45.173Z,4.00
2019-05-26T16:05:49.797Z,3.62
2019-05-26T16:10:54.403Z,3.35
2019-05-26T16:16:01.218Z,3.52
2019-05-26T16:21:14.512Z,4.03
2019-05-26T16:26:13.393Z,5.00
2019-05-26T16:31:18.026Z,4.22
2019-05-26T16:36:22.632Z,3.98
2019-05-26T16:41:27.180Z,3.30
2019-05-26T16:46:31.771Z,3.50
2019-05-26T16:51:36.453Z,3.60
2019-05-26T16:56:40.997Z,4.60
2019-05-26T17:01:45.637Z,4.17
2019-05-26T17:06:50.290Z,8.63
2019-05-26T17:11:54.903Z,4.12
2019-05-26T17:17:13.579Z,4.87
2019-05-26T17:22:05.940Z,3.90
2019-05-26T17:27:10.522Z,4.72
2019-05-26T17:32:15.256Z,4.20
2019-05-26T17:37:19.927Z,4.28
2019-05-26T17:42:25.470Z,4.92
2019-05-26T17:47:31.014Z,3.95
2019-05-26T17:52:36.314Z,4.65
2019-05-26T17:57:40.874Z,4.97
2019-05-26T18:02:45.386Z,5.65
2019-05-26T18:07:50.090Z,4.87
2019-05-26T18:12:55.092Z,4.10
2019-05-26T18:17:59.656Z,5.55
2019-05-26T18:23:05.327Z,5.65
2019-05-26T18:28:09.960Z,8.50
2019-05-26T18:33:14.598Z,6.92
2019-05-26T18:38:19.212Z,5.87
2019-05-26T18:43:23.922Z,5.03
2019-05-26T18:48:28.477Z,4.87
2019-05-26T18:53:33.205Z,7.12
2019-05-26T18:58:37.763Z,5.60
2019-05-26T19:03:42.317Z,5.20
2019-05-26T19:08:46.995Z,6.60
2019-05-26T19:13:51.622Z,6.60
2019-05-26T19:18:56.148Z,8.23
2019-05-26T19:24:01.757Z,8.58
2019-05-26T19:29:06.458Z,9.20
2019-05-26T19:34:11.007Z,8.65
2019-05-26T19:39:15.492Z,8.85
2019-05-26T19:44:20.166Z,8.70
2019-05-26T19:49:24.745Z,9.18
2019-05-26T19:54:29.462Z,7.67
2019-05-26T19:59:34.851Z,7.42
2019-05-26T20:04:39.509Z,7.85
2019-05-26T20:09:44.691Z,6.25
2019-05-26T20:14:49.844Z,6.78
2019-05-26T20:19:54.360Z,7.67
2019-05-26T20:24:58.917Z,7.40
2019-05-26T20:30:04.601Z,7.25
2019-05-26T20:35:09.662Z,7.75
2019-05-26T20:40:15.302Z,7.62
2019-05-26T20:45:19.945Z,7.20
2019-05-26T20:50:29.335Z,7.58
2019-05-26T20:55:31.038Z,7.65
2019-05-26T21:00:35.604Z,7.90
2019-05-26T21:05:40.176Z,8.73
2019-05-26T21:10:44.827Z,8.75
2019-05-26T21:15:49.362Z,7.72
2019-05-26T21:20:53.955Z,7.20
2019-05-26T21:25:58.528Z,6.95
2019-05-26T21:31:03.247Z,6.22
2019-05-26T21:36:07.791Z,6.92
2019-05-26T21:41:12.458Z,6.58
2019-05-26T21:46:17.093Z,6.62
2019-05-26T21:51:21.660Z,6.22
2019-05-26T21:56:26.469Z,6.33
2019-05-26T22:01:31.176Z,6.25
2019-05-26T22:06:35.763Z,6.85
2019-05-26T22:11:40.383Z,6.53
2019-05-26T22:16:45.897Z,7.17
2019-05-26T22:21:50.733Z,6.10
2019-05-26T22:26:56.051Z,6.58
2019-05-26T22:32:00.755Z,6.90
2019-05-26T22:37:05.461Z,7.53
2019-05-26T22:42:10.168Z,7.55
2019-05-26T22:47:14.801Z,8.08
2019-05-26T22:52:19.416Z,8.10
2019-05-26T22:57:23.893Z,7.37
2019-05-26T23:02:28.499Z,7.30
2019-05-26T23:07:34.779Z,8.10
2019-05-26T23:12:39.254Z,8.08
2019-05-26T23:17:43.929Z,8.15
2019-05-26T23:22:48.506Z,8.53
2019-05-26T23:27:53.124Z,8.58
2019-05-26T23:32:57.697Z,8.25
2019-05-26T23:38:02.281Z,8.20
2019-05-26T23:43:08.368Z,8.48
2019-05-26T23:48:13.020Z,10.55
2019-05-26T23:53:17.582Z,10.18
2019-05-26T23:58:22.161Z,9.08
